Time;durP1;ratioP1;P1;durP2;ratioP2;P2;SDS_P1;SDS_P2;PMS_P1;PMS_P2;Temp;Humidity;BMP_temperature;BMP_pressure;BME280_temperature;BME280_humidity;BME280_pressure;Samples;Min_cycle;Max_cycle;Signal;HPM_P1;HPM_P2
2022/12/13 08:32:29;;;;;;;37.53;20.15;;;;;;;-4.77;69.40;99335.31;1076950;31;21174;-78
2022/12/13 08:53:22;;;;;;;30.80;18.35;;;;;;;-4.18;68.32;99340.59;1072774;54;21258;31
2022/12/13 08:57:21;;;;;;;33.88;19.65;;;;;;;-4.21;67.64;99338.13;1072970;54;20818;31
2022/12/13 08:58:25;;;;;;;33.90;19.13;;;;;;;-4.24;67.81;99345.16;1089418;39;20371;-81
2022/12/13 08:59:30;;;;;;;31.02;20.38;;;;;;;-4.19;68.16;99336.28;1087916;47;20111;-82
2022/12/13 09:00:34;;;;;;;33.20;19.02;;;;;;;-4.23;67.90;99346.88;1087622;54;20039;-82
2022/12/13 09:01:38;;;;;;;36.30;20.98;;;;;;;-4.20;68.08;99345.03;1087531;54;20076;-81
2022/12/13 09:02:42;;;;;;;31.02;20.17;;;;;;;-4.19;67.92;99346.75;1087632;54;20050;-81
2022/12/13 09:03:48;;;;;;;31.45;19.60;;;;;;;-4.12;68.04;99338.56;1087529;54;20317;-82
2022/12/13 09:04:53;;;;;;;30.70;18.48;;;;;;;-4.10;67.85;99341.09;1087737;47;20065;-81
2022/12/13 09:05:57;;;;;;;29.00;18.75;;;;;;;-4.05;67.83;99348.72;1087590;54;20034;-83
2022/12/13 09:06:59;;;;;;;32.58;20.38;;;;;;;-4.07;67.37;99343.59;1087779;47;20026;-81
2022/12/13 09:08:04;;;;;;;32.30;20.30;;;;;;;-4.08;67.23;99339.28;1087782;54;20039;-82
2022/12/13 09:09:09;;;;;;;33.53;20.02;;;;;;;-4.08;67.07;99344.50;1087722;54;20054;-81
2022/12/13 09:10:13;;;;;;;40.03;19.90;;;;;;;-4.08;67.02;99341.88;1087744;54;20094;-80
2022/12/13 09:11:22;;;;;;;35.05;20.38;;;;;;;-4.07;66.98;99351.41;1087753;54;20030;-82
2022/12/13 09:13:50;;;;;;;31.17;18.65;;;;;;;-3.92;66.79;99342.88;1087708;54;20037;-81
2022/12/13 09:14:54;;;;;;;28.27;17.35;;;;;;;-3.92;67.01;99335.03;1087704;54;20062;-80
2022/12/13 09:15:59;;;;;;;30.40;18.77;;;;;;;-3.87;67.16;99336.63;1087676;54;20053;-80
2022/12/13 09:17:04;;;;;;;30.10;18.45;;;;;;;-3.78;66.96;99341.41;1087712;54;20030;-82
2022/12/13 09:18:08;;;;;;;37.17;19.85;;;;;;;-3.74;66.81;99340.34;1087708;54;20063;-82
2022/12/13 09:19:14;;;;;;;35.20;19.20;;;;;;;-3.74;66.40;99337.72;1087690;54;20035;-81
2022/12/13 09:20:19;;;;;;;28.02;18.45;;;;;;;-3.73;66.48;99338.59;1087634;54;20021;-80
2022/12/13 09:21:32;;;;;;;29.20;18.05;;;;;;;-3.68;66.43;99337.41;1088046;46;20045;-83
2022/12/13 09:22:39;;;;;;;26.33;16.90;;;;;;;-3.53;66.59;99335.03;1087661;54;20031;-80
2022/12/13 09:23:44;;;;;;;29.38;17.23;;;;;;;-3.43;66.41;99331.06;1087699;54;20030;-81
2022/12/13 09:24:49;;;;;;;27.70;16.98;;;;;;;-3.37;65.84;99338.59;1087669;54;20034;-81
2022/12/13 09:25:57;;;;;;;35.75;18.83;;;;;;;-3.34;65.82;99335.84;1088843;46;20039;-82
2022/12/13 09:27:02;;;;;;;28.33;17.60;;;;;;;-3.43;65.71;99333.66;1087656;54;20038;-81
2022/12/13 09:28:09;;;;;;;34.67;19.77;;;;;;;-3.40;65.39;99333.50;1087635;54;20030;-82
2022/12/13 09:29:15;;;;;;;27.80;17.95;;;;;;;-3.38;65.61;99338.69;1087569;54;20030;-81
2022/12/13 09:30:19;;;;;;;30.55;19.05;;;;;;;-3.44;65.32;99329.34;1088939;46;20034;-82
2022/12/13 09:31:24;;;;;;;31.48;18.42;;;;;;;-3.43;65.65;99335.41;1087485;54;20078;-80
2022/12/13 09:32:29;;;;;;;34.92;18.38;;;;;;;-3.41;65.51;99336.19;1087644;54;20034;-81
2022/12/13 09:33:33;;;;;;;31.88;19.38;;;;;;;-3.32;65.54;99327.91;1087597;54;20069;-81
2022/12/13 09:34:37;;;;;;;29.58;17.70;;;;;;;-3.10;65.63;99330.31;1087640;54;20057;-80
2022/12/13 09:36:05;;;;;;;27.30;16.73;;;;;;;-3.03;64.40;99318.66;1087286;54;20055;-80
2022/12/13 09:37:12;;;;;;;32.67;17.75;;;;;;;-3.03;64.39;99323.03;1087524;54;20051;-81
2022/12/13 09:38:14;;;;;;;26.35;16.63;;;;;;;-2.98;64.49;99321.88;1087773;54;20034;-81
2022/12/13 09:39:18;;;;;;;29.95;18.60;;;;;;;-3.04;64.26;99322.19;1087766;54;20030;-80
2022/12/13 09:40:25;;;;;;;32.55;18.38;;;;;;;-3.08;64.13;99322.41;1087796;54;20038;-80
2022/12/13 09:41:34;;;;;;;31.15;18.67;;;;;;;-3.03;64.94;99313.44;1089476;39;20697;-81
2022/12/13 09:42:38;;;;;;;29.73;19.60;;;;;;;-3.03;64.67;99323.88;1088533;46;20037;-80
2022/12/13 09:43:46;;;;;;;29.92;18.35;;;;;;;-2.86;64.70;99320.41;1088036;54;20038;-81
2022/12/13 09:44:54;;;;;;;27.02;16.23;;;;;;;-2.69;64.16;99330.03;1089037;46;20030;-79
2022/12/13 09:45:56;;;;;;;35.70;18.83;;;;;;;-2.72;63.76;99332.78;1088210;46;20033;-81
2022/12/13 09:47:09;;;;;;;29.98;17.80;;;;;;;-2.83;63.52;99332.47;1088243;46;20021;-80
2022/12/13 09:48:18;;;;;;;29.92;17.95;;;;;;;-2.86;64.04;99330.88;1087893;54;20037;-81
2022/12/13 09:49:32;;;;;;;28.67;17.23;;;;;;;-2.81;63.53;99338.50;1087955;54;20030;-80
2022/12/13 09:50:37;;;;;;;29.30;16.45;;;;;;;-2.73;63.71;99331.09;1088835;46;20039;-81
2022/12/13 09:51:42;;;;;;;26.77;16.92;;;;;;;-2.68;63.29;99334.34;1088719;46;20045;-80
2022/12/13 09:52:47;;;;;;;26.00;15.75;;;;;;;-2.45;63.53;99326.22;1087698;46;20041;-80
2022/12/13 09:53:54;;;;;;;24.90;15.77;;;;;;;-2.27;63.31;99327.88;1088223;46;20078;-80
2022/12/13 09:55:00;;;;;;;24.45;15.73;;;;;;;-2.09;62.85;99328.69;1088492;46;20014;-80
2022/12/13 09:56:02;;;;;;;25.33;15.80;;;;;;;-2.10;61.90;99334.84;1088239;46;20067;-80
2022/12/13 09:57:06;;;;;;;22.58;14.82;;;;;;;-1.95;62.67;99324.47;1087444;54;20030;-80
2022/12/13 09:58:16;;;;;;;25.35;16.52;;;;;;;-1.80;62.48;99322.78;1088255;46;20041;-79
2022/12/13 09:59:29;;;;;;;21.00;14.43;;;;;;;-1.69;61.92;99327.44;1087473;54;20034;-80
2022/12/13 10:00:36;;;;;;;24.33;14.48;;;;;;;-1.66;61.25;99322.03;1087479;54;20098;-80
2022/12/13 10:01:40;;;;;;;26.85;17.75;;;;;;;-1.97;60.75;99327.19;1087432;54;20038;-81
2022/12/13 10:02:48;;;;;;;25.55;16.35;;;;;;;-2.06;61.01;99325.88;1087572;46;20062;-82
2022/12/13 10:03:53;;;;;;;31.42;16.65;;;;;;;-1.98;61.65;99311.56;1087216;54;20042;-80
2022/12/13 10:05:11;;;;;;;26.52;16.98;;;;;;;-2.02;61.31;99310.84;1087450;54;20690;-80
2022/12/13 10:06:17;;;;;;;27.80;15.35;;;;;;;-1.97;61.34;99305.34;1087431;54;20043;-79
2022/12/13 10:07:23;;;;;;;29.92;16.73;;;;;;;-1.88;61.62;99304.84;1087357;54;20045;-79
2022/12/13 10:08:33;;;;;;;26.00;17.30;;;;;;;-1.89;61.07;99309.25;1087405;54;20035;-79
2022/12/13 10:09:37;;;;;;;27.40;17.50;;;;;;;-1.94;61.37;99302.56;1087449;54;20057;-80
2022/12/13 10:10:43;;;;;;;27.42;15.70;;;;;;;-1.87;61.36;99301.31;1087384;54;20749;-79
2022/12/13 10:11:51;;;;;;;30.98;18.35;;;;;;;-1.99;60.89;99304.63;1087393;54;20042;-78
2022/12/13 10:13:05;;;;;;;29.83;17.50;;;;;;;-2.05;61.27;99300.56;1087335;54;20727;-79
2022/12/13 10:14:12;;;;;;;24.77;16.98;;;;;;;-2.20;61.79;99305.66;1088922;39;20695;-80
2022/12/13 10:15:19;;;;;;;28.20;16.88;;;;;;;-2.14;61.51;99307.13;1087421;54;20050;-79
2022/12/13 10:16:29;;;;;;;29.98;16.85;;;;;;;-2.04;61.67;99302.25;1087383;54;21024;-78
2022/12/13 10:17:39;;;;;;;24.35;15.25;;;;;;;-1.97;61.60;99298.34;1087401;54;20027;-79
2022/12/13 10:18:45;;;;;;;27.67;17.35;;;;;;;-2.08;61.24;99296.31;1087233;54;20061;-79
2022/12/13 10:19:50;;;;;;;28.17;17.67;;;;;;;-2.10;61.42;99298.19;1087343;54;20034;-79
2022/12/13 10:20:55;;;;;;;25.75;15.55;;;;;;;-2.04;61.46;99297.84;1089887;39;20532;-80
2022/12/13 10:22:01;;;;;;;26.58;17.00;;;;;;;-2.07;61.09;99297.16;1087409;54;20046;-79
2022/12/13 10:23:05;;;;;;;27.13;16.05;;;;;;;-1.96;61.44;99296.56;1087411;54;20030;-79
2022/12/13 10:24:26;;;;;;;28.10;16.25;;;;;;;-1.75;60.92;99303.25;1087325;54;20030;-78
2022/12/13 10:25:49;;;;;;;28.02;16.75;;;;;;;-1.69;60.53;99301.22;1087341;54;21020;-78
2022/12/13 10:26:53;;;;;;;29.38;17.17;;;;;;;-1.67;60.73;99300.22;1087309;54;20107;-78
2022/12/13 10:27:59;;;;;;;30.60;16.92;;;;;;;-1.53;60.81;99298.59;1087391;54;20098;-79
2022/12/13 10:29:05;;;;;;;26.52;16.25;;;;;;;-1.40;60.44;99294.38;1087287;54;20030;-79
2022/12/13 10:30:12;;;;;;;30.60;18.60;;;;;;;-1.37;60.16;99291.53;1087390;46;20045;-81
2022/12/13 10:31:22;;;;;;;32.33;18.20;;;;;;;-1.33;59.73;99290.44;1087443;39;20444;-81
2022/12/13 10:32:26;;;;;;;26.58;16.15;;;;;;;-1.31;59.98;99285.09;1087101;54;20682;-83
2022/12/13 10:33:35;;;;;;;27.35;17.15;;;;;;;-1.29;59.62;99278.88;1087186;54;20039;-84
2022/12/13 10:34:39;;;;;;;25.83;16.42;;;;;;;-1.06;60.16;99279.28;1087338;54;20670;-84
2022/12/13 10:35:41;;;;;;;24.90;15.70;;;;;;;-0.88;59.76;99266.03;1088690;46;20030;-82
2022/12/13 10:36:45;;;;;;;21.38;14.15;;;;;;;-0.67;59.22;99271.78;1087359;54;20053;-84
2022/12/13 10:37:49;;;;;;;23.92;15.45;;;;;;;-0.59;58.92;99258.19;1087350;54;20788;-80
2022/12/13 10:38:53;;;;;;;23.67;15.48;;;;;;;-0.51;58.94;99266.44;1087281;54;20035;-78
2022/12/13 10:39:58;;;;;;;23.98;15.70;;;;;;;-0.46;59.02;99256.50;1087318;54;20038;-78
2022/12/13 10:40:59;;;;;;;23.15;15.07;;;;;;;-0.48;59.09;99259.25;1087319;54;21025;-80
2022/12/13 10:42:05;;;;;;;24.55;16.25;;;;;;;-0.54;58.87;99262.22;1088264;39;20602;-78
2022/12/13 10:43:10;;;;;;;25.35;17.23;;;;;;;-0.61;58.09;99257.47;1087425;54;20034;-79
2022/12/13 10:44:23;;;;;;;26.63;16.98;;;;;;;-0.75;58.36;99255.63;1087357;54;20035;-79
2022/12/13 10:45:28;;;;;;;26.95;16.63;;;;;;;-0.82;58.81;99261.25;1087413;54;20038;-79
2022/12/13 10:46:35;;;;;;;25.83;16.33;;;;;;;-1.06;58.45;99258.31;1087554;46;20053;-79
2022/12/13 10:47:39;;;;;;;25.90;16.58;;;;;;;-1.04;58.83;99260.84;1087381;54;20037;-78
2022/12/13 10:48:48;;;;;;;27.88;16.00;;;;;;;-1.11;58.36;99257.75;1087312;54;20065;-78
2022/12/13 10:49:55;;;;;;;25.27;16.38;;;;;;;-1.17;58.85;99260.69;1087302;54;20034;-78
2022/12/13 10:50:59;;;;;;;25.80;16.80;;;;;;;-1.35;58.80;99257.38;1087353;54;20034;-79
2022/12/13 10:52:04;;;;;;;26.00;15.35;;;;;;;-1.50;58.94;99261.72;1087782;39;20679;-79
2022/12/13 10:53:08;;;;;;;24.75;15.77;;;;;;;-1.69;59.66;99264.53;1089338;39;20649;-80
2022/12/13 10:54:19;;;;;;;27.33;17.13;;;;;;;-1.87;59.69;99267.25;1087261;54;21368;-80
2022/12/13 10:55:27;;;;;;;;;;;;;;;-1.99;59.75;99265.31;1087487;54;20766;-79
2022/12/13 10:56:37;;;;;;;25.05;15.45;;;;;;;-2.03;60.34;99272.47;1088352;46;19942;-79
2022/12/13 10:57:42;;;;;;;28.30;16.48;;;;;;;-2.06;60.39;99262.19;1087344;54;20026;-79
2022/12/13 10:58:48;;;;;;;24.67;16.42;;;;;;;-2.08;60.77;99261.41;1086828;54;20034;-79
2022/12/13 10:59:53;;;;;;;23.92;15.77;;;;;;;-1.99;60.67;99257.47;1087318;54;20042;-79
2022/12/13 11:01:11;;;;;;;29.48;15.80;;;;;;;-2.05;60.86;99254.22;1087294;54;20056;-79
2022/12/13 11:02:34;;;;;;;23.90;15.25;;;;;;;-2.08;60.61;99261.41;1087308;54;20042;-81
2022/12/13 11:03:38;;;;;;;25.25;16.15;;;;;;;-2.12;60.83;99258.13;1087562;39;20262;-79
2022/12/13 11:04:43;;;;;;;27.63;16.27;;;;;;;-2.10;60.77;99261.50;1087285;54;20030;-79
2022/12/13 11:05:49;;;;;;;25.25;15.55;;;;;;;-2.12;60.76;99260.75;1087336;54;20034;-79
2022/12/13 11:06:50;;;;;;;28.73;16.20;;;;;;;-2.16;61.21;99250.50;1087746;39;20551;-79
2022/12/13 11:07:55;;;;;;;25.02;16.00;;;;;;;-2.16;61.27;99266.22;1087317;54;20030;-78
2022/12/13 11:08:59;;;;;;;28.38;17.55;;;;;;;-2.07;61.15;99250.84;1087238;54;20034;-78
2022/12/13 11:10:19;;;;;;;24.27;15.63;;;;;;;-2.03;60.70;99251.53;1087323;54;20090;-79
2022/12/13 11:11:30;;;;;;;24.63;15.65;;;;;;;-2.01;60.79;99254.06;1087323;54;20046;-79
2022/12/13 11:12:34;;;;;;;24.60;14.77;;;;;;;-1.95;60.78;99244.09;1087283;54;20034;-79
2022/12/13 11:13:42;;;;;;;25.95;16.17;;;;;;;-2.04;60.83;99245.44;1087218;54;20030;-79
2022/12/13 11:14:54;;;;;;;26.90;16.92;;;;;;;-2.15;61.07;99247.81;1088946;46;20034;-79
2022/12/13 11:15:58;;;;;;;26.17;15.18;;;;;;;-2.21;61.25;99243.75;1087810;46;20737;-78
2022/12/13 11:17:18;;;;;;;27.58;16.02;;;;;;;-2.37;61.51;99229.78;1087356;54;20034;-79
2022/12/13 11:18:28;;;;;;;23.35;14.75;;;;;;;-2.23;61.48;99239.53;1087267;54;20042;-79
2022/12/13 11:19:37;;;;;;;24.98;15.73;;;;;;;-2.24;61.85;99236.06;1087306;54;20030;-79
2022/12/13 11:20:57;;;;;;;22.23;14.97;;;;;;;-2.24;61.80;99233.44;1087287;54;20038;-78
2022/12/13 11:22:03;;;;;;;26.38;15.48;;;;;;;-2.21;61.82;99240.28;1087332;54;20295;-78
2022/12/13 11:23:15;;;;;;;26.10;15.93;;;;;;;-2.31;62.02;99236.47;1087173;54;20057;-79
2022/12/13 11:24:24;;;;;;;23.63;15.00;;;;;;;-2.40;61.79;99220.34;1087152;54;20067;-79
2022/12/13 11:25:35;;;;;;;28.25;16.33;;;;;;;-2.47;62.06;99226.84;1087274;54;20617;-79
2022/12/13 11:26:41;;;;;;;26.77;15.45;;;;;;;-2.51;62.48;99222.69;1087146;54;20077;-79
2022/12/13 11:28:00;;;;;;;27.77;16.45;;;;;;;-2.52;62.43;99215.75;1087272;54;20700;-79
2022/12/13 11:29:30;;;;;;;24.38;16.00;;;;;;;-2.40;62.44;99222.09;1088688;39;20655;-79
2022/12/13 11:30:45;;;;;;;25.90;15.45;;;;;;;-2.46;62.26;99218.06;1090077;39;20928;-80
2022/12/13 11:31:58;;;;;;;28.73;17.73;;;;;;;-2.56;62.41;99216.88;1087157;54;20041;-79
2022/12/13 11:33:14;;;;;;;25.75;15.93;;;;;;;-2.49;62.37;99217.34;1087239;54;20043;-80
2022/12/13 11:34:34;;;;;;;22.40;14.88;;;;;;;-2.41;62.22;99215.19;1087200;54;20034;-79
2022/12/13 11:35:52;;;;;;;25.08;15.50;;;;;;;-2.45;62.68;99217.09;1087266;54;20042;-80
2022/12/13 11:37:02;;;;;;;26.40;16.08;;;;;;;-2.46;62.72;99225.91;1087287;54;20030;-80
2022/12/13 11:38:21;;;;;;;24.73;15.55;;;;;;;-2.39;62.63;99224.66;1087260;54;20050;-79
2022/12/13 11:39:32;;;;;;;26.75;15.70;;;;;;;-2.38;62.62;99222.88;1087250;54;20038;-79
2022/12/13 11:40:42;;;;;;;26.98;16.23;;;;;;;-2.43;62.66;99220.50;1087126;54;20049;-79
2022/12/13 11:41:56;;;;;;;25.33;16.63;;;;;;;-2.41;62.78;99228.28;1087222;54;20035;-79
2022/12/13 11:43:07;;;;;;;25.20;14.90;;;;;;;-2.33;62.69;99227.84;1087231;54;20057;-79
2022/12/13 11:44:14;;;;;;;;;;;;;;;-2.41;62.85;99226.50;1087294;54;20094;-79
2022/12/13 11:45:22;;;;;;;24.05;15.55;;;;;;;-2.39;62.87;99222.03;1087691;39;20420;-79
2022/12/13 11:46:37;;;;;;;23.92;15.20;;;;;;;-2.33;62.91;99222.63;1087204;54;20041;-78
2022/12/13 11:47:46;;;;;;;26.83;16.10;;;;;;;-2.38;62.71;99220.25;1087259;54;20034;-79
2022/12/13 11:48:54;;;;;;;27.17;16.30;;;;;;;-2.35;62.82;99215.69;1087176;54;20766;-79
2022/12/13 11:50:07;;;;;;;28.90;17.08;;;;;;;-2.37;62.78;99217.56;1087328;54;20038;-79
2022/12/13 11:51:14;;;;;;;24.55;16.13;;;;;;;-2.40;62.99;99207.25;1087344;54;20034;-79
2022/12/13 11:52:24;;;;;;;24.92;15.75;;;;;;;-2.29;62.90;99224.16;1087316;54;20034;-79
2022/12/13 11:53:32;;;;;;;23.52;14.45;;;;;;;-2.17;62.75;99223.47;1087035;54;20034;-79
2022/12/13 11:54:45;;;;;;;26.10;15.20;;;;;;;-2.19;62.67;99209.63;1087311;54;20034;-80
2022/12/13 11:55:53;;;;;;;25.85;16.77;;;;;;;-2.18;62.49;99221.81;1087259;54;20765;-79
2022/12/13 11:57:03;;;;;;;26.23;15.77;;;;;;;-2.17;62.44;99220.84;1087343;54;20034;-79
2022/12/13 11:58:14;;;;;;;24.08;15.43;;;;;;;-2.17;62.33;99217.41;1092890;39;20563;-81
2022/12/13 11:59:29;;;;;;;24.48;15.50;;;;;;;-2.22;62.25;99212.41;1086892;54;20053;-79
2022/12/13 12:00:36;;;;;;;23.70;14.30;;;;;;;-2.26;62.63;99219.59;1087286;54;20094;-80
2022/12/13 12:01:45;;;;;;;24.83;14.85;;;;;;;-2.25;62.61;99208.19;1087375;54;20026;-81
2022/12/13 12:02:56;;;;;;;23.65;14.40;;;;;;;-2.23;62.56;99208.09;1087353;54;20034;-79
2022/12/13 12:04:03;;;;;;;;;;;;;;;-2.28;62.46;99210.13;1088112;46;20076;-80
2022/12/13 12:05:27;;;;;;;30.48;16.80;;;;;;;-2.16;62.66;99206.81;1089457;46;19954;-80
2022/12/13 12:06:37;;;;;;;23.58;13.95;;;;;;;-2.06;62.61;99208.00;1087355;46;20043;-80
2022/12/13 12:07:45;;;;;;;22.25;15.13;;;;;;;-2.12;62.18;99195.25;1087320;54;20038;-81
2022/12/13 12:08:57;;;;;;;23.45;14.63;;;;;;;-2.09;62.49;99189.88;1087221;54;20042;-79
2022/12/13 12:10:15;;;;;;;22.70;15.13;;;;;;;-2.09;62.35;99187.25;1087257;54;20086;-79
2022/12/13 12:11:29;;;;;;;25.15;15.02;;;;;;;-2.04;62.31;99200.09;1087258;54;20042;-79
2022/12/13 12:12:36;;;;;;;25.00;15.68;;;;;;;-2.05;62.46;99191.38;1087211;54;20118;-80
2022/12/13 12:13:44;;;;;;;24.13;14.20;;;;;;;-2.00;62.17;99198.97;1087175;54;20026;-80
2022/12/13 12:14:55;;;;;;;22.90;14.45;;;;;;;-1.96;62.31;99203.13;1087318;54;20038;-79
2022/12/13 12:16:09;;;;;;;24.33;14.68;;;;;;;-2.06;62.32;99200.16;1087230;54;20049;-81
2022/12/13 12:17:15;;;;;;;24.30;14.80;;;;;;;-1.97;62.21;99203.19;1087360;54;20026;-80
2022/12/13 12:18:19;;;;;;;22.95;14.00;;;;;;;-1.81;62.11;99204.03;1087554;54;20030;-80
2022/12/13 12:19:28;;;;;;;23.25;13.80;;;;;;;-1.73;62.08;99201.81;1087647;47;20031;-80
2022/12/13 12:20:46;;;;;;;20.67;13.88;;;;;;;-1.70;61.93;99194.72;1087617;54;20034;-80
2022/12/13 12:22:09;;;;;;;23.10;13.95;;;;;;;-1.61;61.71;99188.94;1087673;54;20034;-80
2022/12/13 12:23:24;;;;;;;19.17;12.80;;;;;;;-1.52;61.77;99191.03;1087579;54;20061;-80
2022/12/13 12:24:36;;;;;;;21.40;13.20;;;;;;;-1.52;61.41;99183.19;1089226;46;20049;-80
2022/12/13 12:25:48;;;;;;;25.52;14.15;;;;;;;-1.61;61.47;99187.16;1089052;46;20070;-80
2022/12/13 12:27:06;;;;;;;22.88;13.43;;;;;;;-1.61;61.47;99183.72;1087679;54;20031;-80
2022/12/13 12:28:25;;;;;;;22.00;14.60;;;;;;;-1.71;61.40;99186.00;1088206;46;20038;-80
2022/12/13 12:29:54;;;;;;;23.08;14.30;;;;;;;-1.71;61.78;99187.78;1088299;46;20033;-80
2022/12/13 12:31:10;;;;;;;20.05;12.98;;;;;;;-1.58;61.85;99181.75;1087486;54;20334;-79
2022/12/13 12:32:28;;;;;;;21.13;12.77;;;;;;;-1.46;61.62;99180.19;1087581;54;20045;-82
2022/12/13 12:33:42;;;;;;;24.10;13.32;;;;;;;-1.51;61.34;99176.97;1086845;54;20045;-81
2022/12/13 12:34:53;;;;;;;21.75;12.48;;;;;;;-1.55;61.57;99178.09;1085795;46;20050;-81
2022/12/13 12:36:22;;;;;;;22.05;14.35;;;;;;;-1.59;61.61;99187.06;1085913;46;20035;-81
2022/12/13 12:37:37;;;;;;;23.58;14.63;;;;;;;-1.67;61.47;99184.91;1089325;31;20555;-82
2022/12/13 12:39:23;;;;;;;23.52;14.68;;;;;;;-1.73;61.83;99178.22;1085402;54;20038;-81
2022/12/13 12:40:53;;;;;;;25.33;15.60;;;;;;;-1.83;61.88;99186.69;1085306;47;20038;-81
2022/12/13 12:42:12;;;;;;;21.05;13.80;;;;;;;-1.85;61.93;99185.94;1086250;46;20034;-82
2022/12/13 12:43:24;;;;;;;21.70;14.02;;;;;;;-1.84;62.17;99192.88;1087336;54;20030;-80
2022/12/13 12:44:41;;;;;;;23.48;15.43;;;;;;;-1.84;62.22;99196.34;1087942;39;20474;-83
2022/12/13 12:47:02;;;;;;;23.23;14.75;;;;;;;-1.82;62.33;99186.63;1088087;54;20038;-82
2022/12/13 12:48:23;;;;;;;21.48;13.68;;;;;;;-1.85;62.26;99191.19;1087862;54;20054;-81
2022/12/13 12:49:55;;;;;;;25.60;15.60;;;;;;;-1.85;62.46;99181.53;1087311;54;20065;-81
2022/12/13 12:51:06;;;;;;;23.80;14.68;;;;;;;-1.85;62.47;99189.41;1092943;31;20782;-82
2022/12/13 12:52:20;;;;;;;24.65;15.13;;;;;;;-1.86;62.42;99187.72;1086976;54;20042;-80
2022/12/13 12:53:43;;;;;;;24.73;14.30;;;;;;;-1.85;62.56;99188.56;1087376;39;21042;-80
2022/12/13 12:55:02;;;;;;;25.98;15.27;;;;;;;-1.92;62.33;99185.44;1086951;54;20057;-80
2022/12/13 12:56:23;;;;;;;22.33;13.85;;;;;;;-1.87;62.49;99188.63;1086879;54;20037;-80
2022/12/13 12:57:38;;;;;;;22.63;14.10;;;;;;;-1.78;62.28;99180.25;1087286;39;20632;-80
2022/12/13 12:58:51;;;;;;;21.40;13.88;;;;;;;-1.82;62.39;99181.38;1087151;54;20030;-80
2022/12/13 13:00:05;;;;;;;24.02;14.70;;;;;;;-1.81;62.48;99171.72;1089494;39;20611;-81
2022/12/13 13:01:23;;;;;;;19.95;12.98;;;;;;;-1.80;62.46;99171.66;1087591;54;20050;-84
2022/12/13 13:02:47;;;;;;;21.85;14.27;;;;;;;-1.72;62.37;99163.34;1087487;54;20022;-83
2022/12/13 13:03:54;;;;;;;23.05;14.50;;;;;;;-1.71;62.27;99164.19;1087536;54;20071;-82
2022/12/13 13:05:05;;;;;;;21.45;13.85;;;;;;;-1.60;62.39;99151.28;1087623;54;20080;-80
2022/12/13 13:06:10;;;;;;;;;;;;;;;-1.71;61.99;99151.09;1088086;54;20037;-82
2022/12/13 13:07:25;;;;;;;21.20;13.20;;;;;;;-1.70;62.32;99150.16;1087370;54;19951;-81
2022/12/13 13:08:35;;;;;;;19.92;13.68;;;;;;;-1.73;62.41;99141.53;1087527;54;20046;-82
2022/12/13 13:09:41;;;;;;;;;;;;;;;-1.76;62.56;99141.72;1088168;47;21013;-81
2022/12/13 13:10:46;;;;;;;21.60;13.88;;;;;;;-1.81;62.19;99138.53;1087376;54;19933;-81
2022/12/13 13:11:51;;;;;;;23.55;13.70;;;;;;;-1.84;62.73;99146.56;1087446;54;20042;-81
2022/12/13 13:12:54;;;;;;;22.77;13.90;;;;;;;-1.85;62.88;99134.38;1087455;54;20050;-80
2022/12/13 13:14:08;;;;;;;22.05;13.30;;;;;;;-1.79;62.55;99141.88;1087680;54;20021;-80
2022/12/13 13:15:45;;;;;;;24.27;13.88;;;;;;;-1.80;62.38;99139.34;1086934;54;20041;-82
2022/12/13 13:16:50;;;;;;;20.58;13.30;;;;;;;-1.79;62.76;99133.19;1087518;54;20057;-80
2022/12/13 13:18:01;;;;;;;21.23;13.95;;;;;;;-1.80;62.75;99137.59;1089131;39;20403;-83
2022/12/13 13:19:06;;;;;;;21.80;13.75;;;;;;;-1.73;62.80;99141.53;1087759;54;20037;-82
2022/12/13 13:20:19;;;;;;;22.33;13.90;;;;;;;-1.78;62.71;99140.94;1087488;54;20043;-82
2022/12/13 13:21:46;;;;;;;21.80;13.88;;;;;;;-1.79;62.83;99136.63;1087762;47;20038;-81
2022/12/13 13:22:54;;;;;;;21.42;12.77;;;;;;;-1.71;62.74;99140.59;1087380;54;20046;-82
2022/12/13 13:24:11;;;;;;;21.38;13.18;;;;;;;-1.64;62.67;99142.75;1087543;54;20034;-84
2022/12/13 13:25:24;;;;;;;23.25;14.70;;;;;;;-1.66;62.46;99149.03;1087597;54;20045;-81
2022/12/13 13:26:30;;;;;;;20.13;12.73;;;;;;;-1.66;62.52;99149.03;1087955;54;20061;-84
2022/12/13 13:27:38;;;;;;;19.08;12.50;;;;;;;-1.59;62.43;99153.84;1087965;47;20038;-81
2022/12/13 13:28:43;;;;;;;25.73;14.45;;;;;;;-1.63;62.19;99152.31;1087679;54;20058;-82
2022/12/13 13:31:06;;;;;;;24.95;13.93;;;;;;;-1.69;62.59;99155.31;1087319;54;20011;-87
2022/12/13 13:32:28;;;;;;;22.33;13.18;;;;;;;-1.66;62.45;99156.91;1089728;39;20457;-80
2022/12/13 13:33:45;;;;;;;21.05;13.07;;;;;;;-1.68;62.36;99149.13;1087599;54;20035;-82
2022/12/13 13:34:48;;;;;;;23.40;14.60;;;;;;;-1.66;62.41;99151.66;1088703;47;20073;-82
2022/12/13 13:35:55;;;;;;;21.27;13.50;;;;;;;-1.71;62.50;99149.31;1087845;54;20042;-81
2022/12/13 13:37:00;;;;;;;19.35;13.23;;;;;;;-1.76;62.36;99154.81;1087251;54;20027;-83
2022/12/13 13:38:43;;;;;;;19.50;13.35;;;;;;;-1.80;62.69;99152.47;1087644;54;20034;-83
2022/12/13 13:40:03;;;;;;;23.05;14.23;;;;;;;-1.75;62.72;99153.06;1087250;54;20044;-82
2022/12/13 13:41:37;;;;;;;19.55;12.38;;;;;;;-1.74;62.26;99152.09;1087686;54;20023;-83
2022/12/13 13:43:04;;;;;;;22.92;13.75;;;;;;;-1.74;62.50;99152.94;1087351;54;20035;-81
2022/12/13 13:48:26;;;;;;;21.42;13.55;;;;;;;-1.79;62.37;99156.78;1086862;54;20021;-81
2022/12/13 13:53:55;;;;;;;20.40;12.70;;;;;;;-1.65;62.12;99162.03;1087543;54;20018;-83
2022/12/13 13:56:05;;;;;;;21.27;13.00;;;;;;;-1.64;62.29;99160.28;1087552;54;20087;-82
2022/12/13 13:57:41;;;;;;;21.95;12.07;;;;;;;-1.53;62.20;99164.91;1091246;46;20139;-82
2022/12/13 13:59:25;;;;;;;18.52;11.68;;;;;;;-1.50;61.84;99154.25;1087253;46;20035;-82
2022/12/13 14:00:50;;;;;;;18.92;11.93;;;;;;;-1.51;61.77;99152.53;1086835;54;20038;-82
2022/12/13 14:02:19;;;;;;;20.40;12.10;;;;;;;-1.47;61.88;99144.41;1087432;39;20588;-80
2022/12/13 14:03:57;;;;;;;20.70;12.73;;;;;;;-1.46;61.90;99156.59;1085464;54;20042;-80
2022/12/13 14:05:23;;;;;;;24.58;13.48;;;;;;;-1.55;61.93;99162.38;1085241;54;20304;-80
2022/12/13 14:07:18;;;;;;;22.75;13.35;;;;;;;-1.59;62.10;99152.97;1084919;54;20043;-80
2022/12/13 14:08:32;;;;;;;21.58;13.05;;;;;;;-1.53;62.01;99163.13;1085789;54;20143;-82
2022/12/13 14:10:07;;;;;;;20.50;12.65;;;;;;;-1.49;61.98;99163.78;1084940;54;20095;-80
2022/12/13 14:11:28;;;;;;;19.25;12.10;;;;;;;-1.45;61.81;99165.28;1085534;54;20063;-80
2022/12/13 14:13:08;;;;;;;18.00;11.60;;;;;;;-1.41;61.78;99165.00;1085211;54;20102;-80
2022/12/13 14:14:49;;;;;;;20.85;12.45;;;;;;;-1.46;61.63;99156.59;1085068;54;20153;-82
2022/12/13 14:16:40;;;;;;;21.95;12.80;;;;;;;-1.48;61.70;99160.25;1085145;54;20130;-82
2022/12/13 14:18:28;;;;;;;23.40;13.05;;;;;;;-1.45;61.97;99158.28;1085031;54;20046;-82
2022/12/13 14:20:00;;;;;;;19.90;12.55;;;;;;;-1.43;61.51;99161.66;1084864;54;20065;-81
2022/12/13 14:21:13;;;;;;;27.27;13.80;;;;;;;-1.47;61.29;99160.13;1085277;46;20046;-79
2022/12/13 14:22:29;;;;;;;20.88;12.80;;;;;;;-1.49;61.69;99161.16;1084625;47;20166;-79
2022/12/13 14:23:46;;;;;;;22.85;13.80;;;;;;;-1.52;61.50;99156.09;1084886;46;20054;-83
2022/12/13 14:24:57;;;;;;;23.27;14.15;;;;;;;-1.59;61.76;99155.59;1091036;39;20560;-80
2022/12/13 14:26:27;;;;;;;27.33;13.00;;;;;;;-1.69;61.30;99157.94;1087375;47;20123;-79
2022/12/13 14:27:49;;;;;;;23.65;13.52;;;;;;;-1.71;61.58;99158.97;1087388;54;20042;-78
2022/12/13 14:28:58;;;;;;;19.48;12.75;;;;;;;-1.64;61.87;99157.66;1087422;54;20026;-81
2022/12/13 14:30:16;;;;;;;22.58;14.40;;;;;;;-1.71;62.12;99167.66;1087324;54;20313;-78
2022/12/13 14:31:25;;;;;;;22.42;13.82;;;;;;;-1.73;61.88;99159.03;1088204;39;20594;-77
2022/12/13 14:32:36;;;;;;;22.42;13.55;;;;;;;-1.73;62.33;99159.88;1087322;54;20030;-79
2022/12/13 14:33:43;;;;;;;21.60;13.20;;;;;;;-1.76;62.15;99152.19;1087193;54;20045;-81
2022/12/13 14:34:47;;;;;;;22.58;14.10;;;;;;;-1.80;62.41;99157.69;1087504;54;20101;-81
2022/12/13 14:35:59;;;;;;;25.55;14.45;;;;;;;-1.85;62.72;99155.34;1087984;54;20038;-79
2022/12/13 14:37:42;;;;;;;21.02;14.00;;;;;;;-1.89;62.49;99153.84;1087251;54;20046;-77
2022/12/13 14:40:41;;;;;;;21.35;12.88;;;;;;;-1.91;62.68;99166.19;1092506;39;20737;-77
2022/12/13 14:42:33;;;;;;;23.65;13.98;;;;;;;-1.96;62.78;99162.97;1089205;46;20026;-77